Gonzales, California
Current Conditions -  °F | °C
As of 3:53 PM on Monday 20 Oct 2014 (Local Time) from KSNS Reporting Station
Overcast Overcast  
Wind Chill: 67°   Ceiling: 2700
Heat Index: 67°   Visibility: 10mi
Dew Point: 56°   Wind: 12mph
Humidity: 68%   Direction: 260°W
Pressure: 29.98"   Gusts: NA
Location:  36.51°N, 121.44°W
Report Text: KSNS 202253Z 26010KT 10SM BKN027 OVC038 19/13 A2998 RMK AO2 SLP160 T01940133
Loading
Personal Weather Stations






























Interactive Weather Map
Tropical Storm Tracking
New forecast layout! Learn more

10-Day Weather Forecast

Advertisements
Track Severe Weather on mobile